PWSweather.com
Personal Weather Stations
Station Observations
KMIEASTT1
Tawas Bay, East Tawas, MI 48730

Tawas BayEast Tawas, MI 48730

Lat: 44.28, Lon: -83.48

Elevation: 600

Station Type: Davis VantagePro

http://www.tawasbayweather.com

Latest ConditionsUpdated 2:45:09 PM EST Tuesday, Dec 6, 2016
Currently Today's Max Today's Min Today's Average
Temperature 40.5°F4.7°C 40.5°F4.7°C 30.8°F-0.7°C 38.0°F3.3°C
Dew Point 36.7°F2.6°C 36.8°F2.7°C 29.5°F-1.4°C 34.9°F1.6°C
Winds 11.0 mph ESE17.7 kmh ESE 18.0 mph ESE29.0 kmh ESE - 10.6 mph 17.1 kmh
Wind Gusts 13.0 mph20.9 kmh 23.0 mph37.0 kmh - -
Humidity 86% 96% 84% 88%
Pressure 29.79 in1008.8 mb 30.11 in1019.6 mb 29.79 in1008.8 mb -
Hour Temp Dew Point Humidity Winds Wind Gusts Pressure Precip Precip Rate Daily Precip Total
02:45 PM 40.5°F4.7°C 36.7°F2.6°C 86% 11.0 mph ESE17.7 kmh ESE 13.0 mph20.9 kmh 29.79 in1008.8 mb 0.00 in0.0 mm 0.00 in0.0 mm 0.00 in0.0 mm
02:30 PM 40.3°F4.6°C 36.2°F2.3°C 85% 13.0 mph SE20.9 kmh SE 17.0 mph27.4 kmh 29.79 in1008.8 mb 0.00 in0.0 mm 0.00 in0.0 mm 0.00 in0.0 mm
02:15 PM 40.3°F4.6°C 36.8°F2.7°C 87% 9.0 mph E14.5 kmh E 14.0 mph22.5 kmh 29.80 in1009.1 mb 0.00 in0.0 mm 0.00 in0.0 mm 0.00 in0.0 mm
02:00 PM 40.2°F4.6°C 36.4°F2.4°C 86% 13.0 mph ESE20.9 kmh ESE 15.0 mph24.1 kmh 29.80 in1009.1 mb 0.00 in0.0 mm 0.00 in0.0 mm 0.00 in0.0 mm
01:45 PM 40.1°F4.5°C 36.0°F2.2°C 85% 14.0 mph ESE22.5 kmh ESE 16.0 mph25.7 kmh 29.82 in1009.8 mb 0.00 in0.0 mm 0.00 in0.0 mm 0.00 in0.0 mm
01:30 PM 40.2°F4.6°C 36.1°F2.3°C 85% 16.0 mph E25.7 kmh E 19.0 mph30.6 kmh 29.82 in1009.8 mb 0.00 in0.0 mm 0.00 in0.0 mm 0.00 in0.0 mm
01:15 PM 40.3°F4.6°C 36.2°F2.3°C 85% 18.0 mph ESE29.0 kmh ESE 19.0 mph30.6 kmh 29.81 in1009.5 mb 0.00 in0.0 mm 0.00 in0.0 mm 0.00 in0.0 mm
01:00 PM 40.3°F4.6°C 35.9°F2.2°C 84% 17.0 mph E27.4 kmh E 21.0 mph33.8 kmh 29.82 in1009.8 mb 0.00 in0.0 mm 0.00 in0.0 mm 0.00 in0.0 mm
12:45 PM 40.3°F4.6°C 36.5°F2.5°C 86% 14.0 mph ESE22.5 kmh ESE 18.0 mph29.0 kmh 29.83 in1010.2 mb 0.00 in0.0 mm 0.00 in0.0 mm 0.00 in0.0 mm
12:30 PM 40.2°F4.6°C 36.4°F2.4°C 86% 16.0 mph E25.7 kmh E 18.0 mph29.0 kmh 29.84 in1010.5 mb 0.00 in0.0 mm 0.00 in0.0 mm 0.00 in0.0 mm
12:15 PM 40.2°F4.6°C 36.4°F2.4°C 86% 15.0 mph E24.1 kmh E 18.0 mph29.0 kmh 29.85 in1010.8 mb 0.00 in0.0 mm 0.00 in0.0 mm 0.00 in0.0 mm
12:00 PM 40.3°F4.6°C 36.2°F2.3°C 85% 17.0 mph ESE27.4 kmh ESE 19.0 mph30.6 kmh 29.87 in1011.5 mb 0.00 in0.0 mm 0.00 in0.0 mm 0.00 in0.0 mm
11:45 AM 40.2°F4.6°C 36.1°F2.3°C 85% 16.0 mph ESE25.7 kmh ESE 20.0 mph32.2 kmh 29.87 in1011.5 mb 0.00 in0.0 mm 0.00 in0.0 mm 0.00 in0.0 mm
11:30 AM 40.2°F4.6°C 35.8°F2.1°C 84% 13.0 mph ESE20.9 kmh ESE 23.0 mph37.0 kmh 29.89 in1012.2 mb 0.00 in0.0 mm 0.00 in0.0 mm 0.00 in0.0 mm
11:15 AM 40.3°F4.6°C 35.9°F2.2°C 84% 14.0 mph E22.5 kmh E 20.0 mph32.2 kmh 29.89 in1012.2 mb 0.00 in0.0 mm 0.00 in0.0 mm 0.00 in0.0 mm
11:00 AM 40.3°F4.6°C 36.2°F2.3°C 85% 12.0 mph ESE19.3 kmh ESE 18.0 mph29.0 kmh 29.91 in1012.9 mb 0.00 in0.0 mm 0.00 in0.0 mm 0.00 in0.0 mm
10:45 AM 40.3°F4.6°C 36.5°F2.5°C 86% 16.0 mph E25.7 kmh E 17.0 mph27.4 kmh 29.93 in1013.5 mb 0.00 in0.0 mm 0.00 in0.0 mm 0.00 in0.0 mm
10:30 AM 40.4°F4.7°C 36.0°F2.2°C 84% 15.0 mph ESE24.1 kmh ESE 18.0 mph29.0 kmh 29.93 in1013.5 mb 0.00 in0.0 mm 0.00 in0.0 mm 0.00 in0.0 mm
10:15 AM 40.5°F4.7°C 36.1°F2.3°C 84% 15.0 mph ESE24.1 kmh ESE 20.0 mph32.2 kmh 29.94 in1013.9 mb 0.00 in0.0 mm 0.00 in0.0 mm 0.00 in0.0 mm
10:00 AM 40.5°F4.7°C 36.4°F2.4°C 85% 15.0 mph E24.1 kmh E 22.0 mph35.4 kmh 29.95 in1014.2 mb 0.00 in0.0 mm 0.00 in0.0 mm 0.00 in0.0 mm
09:45 AM 40.3°F4.6°C 36.5°F2.5°C 86% 15.0 mph ESE24.1 kmh ESE 20.0 mph32.2 kmh 29.95 in1014.2 mb 0.00 in0.0 mm 0.00 in0.0 mm 0.00 in0.0 mm
09:30 AM 40.1°F4.5°C 36.3°F2.4°C 86% 15.0 mph ESE24.1 kmh ESE 20.0 mph32.2 kmh 29.95 in1014.2 mb 0.00 in0.0 mm 0.00 in0.0 mm 0.00 in0.0 mm
09:15 AM 40.0°F4.4°C 36.2°F2.3°C 86% 14.0 mph ESE22.5 kmh ESE 20.0 mph32.2 kmh 29.96 in1014.6 mb 0.00 in0.0 mm 0.00 in0.0 mm 0.00 in0.0 mm
09:00 AM 39.9°F4.4°C 36.4°F2.4°C 87% 13.0 mph ESE20.9 kmh ESE 18.0 mph29.0 kmh 29.95 in1014.2 mb 0.00 in0.0 mm 0.00 in0.0 mm 0.00 in0.0 mm
08:45 AM 39.8°F4.3°C 36.3°F2.4°C 87% 13.0 mph SE20.9 kmh SE 17.0 mph27.4 kmh 29.96 in1014.6 mb 0.00 in0.0 mm 0.00 in0.0 mm 0.00 in0.0 mm
08:30 AM 39.7°F4.3°C 36.2°F2.3°C 87% 15.0 mph ESE24.1 kmh ESE 19.0 mph30.6 kmh 29.97 in1014.9 mb 0.00 in0.0 mm 0.00 in0.0 mm 0.00 in0.0 mm
08:15 AM 39.5°F4.2°C 36.0°F2.2°C 87% 16.0 mph ESE25.7 kmh ESE 21.0 mph33.8 kmh 29.96 in1014.6 mb 0.00 in0.0 mm 0.00 in0.0 mm 0.00 in0.0 mm
08:00 AM 39.4°F4.1°C 36.4°F2.4°C 89% 15.0 mph ESE24.1 kmh ESE 18.0 mph29.0 kmh 29.96 in1014.6 mb 0.00 in0.0 mm 0.00 in0.0 mm 0.00 in0.0 mm
07:45 AM 39.4°F4.1°C 36.7°F2.6°C 90% 12.0 mph ESE19.3 kmh ESE 16.0 mph25.7 kmh 29.97 in1014.9 mb 0.00 in0.0 mm 0.00 in0.0 mm 0.00 in0.0 mm
07:30 AM 39.1°F3.9°C 36.4°F2.4°C 90% 11.0 mph ESE17.7 kmh ESE 13.0 mph20.9 kmh 29.98 in1015.2 mb 0.00 in0.0 mm 0.00 in0.0 mm 0.00 in0.0 mm
07:15 AM 39.0°F3.9°C 36.3°F2.4°C 90% 12.0 mph ESE19.3 kmh ESE 15.0 mph24.1 kmh 29.99 in1015.6 mb 0.00 in0.0 mm 0.00 in0.0 mm 0.00 in0.0 mm
07:00 AM 38.9°F3.8°C 36.2°F2.3°C 90% 10.0 mph SE16.1 kmh SE 15.0 mph24.1 kmh 30.00 in1015.9 mb 0.00 in0.0 mm 0.00 in0.0 mm 0.00 in0.0 mm
06:45 AM 39.2°F4.0°C 36.2°F2.3°C 89% 11.0 mph SE17.7 kmh SE 15.0 mph24.1 kmh 30.02 in1016.6 mb 0.00 in0.0 mm 0.00 in0.0 mm 0.00 in0.0 mm
06:30 AM 39.0°F3.9°C 36.3°F2.4°C 90% 11.0 mph SE17.7 kmh SE 12.0 mph19.3 kmh 30.02 in1016.6 mb 0.00 in0.0 mm 0.00 in0.0 mm 0.00 in0.0 mm
02:45 AM 32.8°F0.4°C 31.8°F-0.1°C 96% Calm Calm 1.0 mph1.6 kmh 30.08 in1018.6 mb 0.00 in0.0 mm 0.00 in0.0 mm 0.00 in0.0 mm
02:16 AM 31.6°F-0.2°C 30.6°F-0.8°C 96% Calm Calm 2.0 mph3.2 kmh 30.08 in1018.6 mb 0.00 in0.0 mm 0.00 in0.0 mm 0.00 in0.0 mm
02:01 AM 30.9°F-0.6°C 29.9°F-1.2°C 96% Calm Calm 3.0 mph4.8 kmh 30.08 in1018.6 mb 0.00 in0.0 mm 0.00 in0.0 mm 0.00 in0.0 mm
01:45 AM 31.3°F-0.4°C 30.0°F-1.1°C 95% Calm Calm 1.0 mph1.6 kmh 30.07 in1018.3 mb 0.00 in0.0 mm 0.00 in0.0 mm 0.00 in0.0 mm
01:30 AM 31.5°F-0.3°C 30.5°F-0.8°C 96% Calm Calm 1.0 mph1.6 kmh 30.08 in1018.6 mb 0.00 in0.0 mm 0.00 in0.0 mm 0.00 in0.0 mm
01:15 AM 30.8°F-0.7°C 29.5°F-1.4°C 95% Calm Calm -- 30.08 in1018.6 mb 0.00 in0.0 mm 0.00 in0.0 mm 0.00 in0.0 mm
01:00 AM 31.2°F-0.4°C 29.9°F-1.2°C 95% Calm Calm -- 30.08 in1018.6 mb 0.00 in0.0 mm 0.00 in0.0 mm 0.00 in0.0 mm
12:45 AM 31.0°F-0.6°C 29.5°F-1.4°C 94% 1.0 mph WSW1.6 kmh WSW 3.0 mph4.8 kmh 30.08 in1018.6 mb 0.00 in0.0 mm 0.00 in0.0 mm 0.00 in0.0 mm
12:30 AM 32.1°F0.1°C 30.3°F-0.9°C 93% 2.0 mph WSW3.2 kmh WSW 3.0 mph4.8 kmh 30.09 in1019.0 mb 0.00 in0.0 mm 0.00 in0.0 mm 0.00 in0.0 mm
12:15 AM 33.4°F0.8°C 31.6°F-0.2°C 93% Calm Calm -- 30.10 in1019.3 mb 0.00 in0.0 mm 0.00 in0.0 mm 0.00 in0.0 mm
12:00 AM 34.4°F1.3°C 32.9°F0.5°C 94% Calm Calm 2.0 mph3.2 kmh 30.11 in1019.6 mb 0.00 in0.0 mm 0.00 in0.0 mm 0.00 in0.0 mm